CMA CGM Thalassa — 5BNE2 — position and weather

sailwx.info

Track history (hours):
 
Tides and Currents Weather Stations Pressure Air Temp Water Temp Dewpoint Dewpoint Depression Visibility Wind Speed Wind Dir Waves Ship Positions

CMA CGM Thalassa

Last reported at 2015-Mar-29 20:31 UTC. Time now 2015-Mar-29 20:47 UTC.
Position N 28°54' E 122°37'.

Length 347 m; draft 13.7 m.

Type: Cargo ship. MMSI: 212151000.

Date/timePositionNaut miles runAvg speedWind from/ knotsBaromVisibWave heightAir tempDewpointWater temp
2015-Mar-29 20:31N 28°54' E 122°37'1919.6
2015-Mar-29 19:32N 29°13' E 122°44'2020.9
2015-Mar-29 18:33N 29°33' E 122°50'2620.8
2015-Mar-29 17:18N 29°57' E 123°00'1720.0
2015-Mar-29 16:27N 30°14' E 122°59'1921.5
2015-Mar-29 15:33N 30°28' E 122°44'2020.1
2015-Mar-29 14:33N 30°32' E 122°21'1111.1
2015-Mar-29 13:33N 30°35' E 122°08'4 1.8
2015-Mar-29 11:22N 30°37' E 122°04'0 0.0
2015-Mar-29 10:04N 30°37' E 122°04'0 0.0
2015-Mar-29 08:30N 30°37' E 122°04'0 0.0
2015-Mar-29 07:21N 30°37' E 122°04'0 0.0
2015-Mar-29 04:32N 30°37' E 122°04'0 0.0
2015-Mar-29 03:31N 30°37' E 122°04'0 0.0
2015-Mar-29 02:28N 30°37' E 122°04'0 0.0
2015-Mar-29 01:33N 30°37' E 122°04'0 0.0
2015-Mar-29 00:28N 30°37' E 122°04'0 0.0
2015-Mar-28 22:09N 30°37' E 122°04'0 0.0
2015-Mar-28 21:15N 30°37' E 122°04'0 0.0
2015-Mar-28 20:32N 30°37' E 122°04'0 0.0
2015-Mar-28 19:29N 30°37' E 122°04'0 0.0
2015-Mar-28 18:28N 30°37' E 122°04'0 0.0
2015-Mar-28 17:31N 30°37' E 122°04'0 0.0
2015-Mar-28 16:33N 30°37' E 122°04'0 0.0
2015-Mar-28 15:15N 30°37' E 122°04'0 0.0
2015-Mar-28 14:27N 30°37' E 122°04'2 1.8
2015-Mar-28 13:33N 30°36' E 122°06'1110.8
2015-Mar-28 12:33N 30°33' E 122°18'8 8.3
2015-Mar-28 11:33N 30°34' E 122°28'1211.0
2015-Mar-28 10:26N 30°33' E 122°42'1314.3
2015-Mar-28 09:33N 30°36' E 122°56'18914.2
2015-Mar-27 20:13N 33°44' E 123°16'1015.8
2015-Mar-27 19:33N 33°54' E 123°16'1616.0
2015-Mar-27 18:33N 34°10' E 123°16'2215.0
2015-Mar-27 17:05N 34°32' E 123°08'1216.2
2015-Mar-27 16:21N 34°38' E 122°56'1316.3
2015-Mar-27 15:33N 34°47' E 122°44'1616.3
2015-Mar-27 14:32N 34°58' E 122°29'1816.0
2015-Mar-27 13:25N 35°10' E 122°12'1415.9
2015-Mar-27 12:31N 35°19' E 121°59'3315.5
2015-Mar-27 10:22N 35°40' E 121°27'1315.2
2015-Mar-27 09:33N 35°49' E 121°16'1915.0
2015-Mar-27 08:16N 35°56' E 120°55'1217.2
2015-Mar-27 07:33N 35°57' E 120°40'1716.8
2015-Mar-27 06:33N 36°01' E 120°20'6 5.4
2015-Mar-27 05:28N 36°01' E 120°12'0 0.0
2015-Mar-27 04:31N 36°01' E 120°12'0 0.0
2015-Mar-27 03:33N 36°01' E 120°12'0 0.0
2015-Mar-27 02:33N 36°01' E 120°12'0 0.0
2015-Mar-27 01:14N 36°01' E 120°12'0 0.0
2015-Mar-27 00:32N 36°01' E 120°12'0 0.0
2015-Mar-26 23:31N 36°01' E 120°12'0 0.0
2015-Mar-26 22:31N 36°01' E 120°12'0 0.0
2015-Mar-26 21:22N 36°01' E 120°12'0 0.0
2015-Mar-26 20:27N 36°01' E 120°12'0 0.0
2015-Mar-26 19:27N 36°01' E 120°12'0 0.0
2015-Mar-26 17:26N 36°01' E 120°12'0 0.0
2015-Mar-26 16:19N 36°01' E 120°12'0 0.0
2015-Mar-26 14:25N 36°01' E 120°12'0 0.0
2015-Mar-26 13:33N 36°01' E 120°12'0 0.0
2015-Mar-26 12:33N 36°01' E 120°12'0 0.0
2015-Mar-26 11:29N 36°01' E 120°12'0 0.0
2015-Mar-26 09:25N 36°01' E 120°12'0 0.0
2015-Mar-26 08:32N 36°01' E 120°12'0 0.5
2015-Mar-26 07:34N 36°01' E 120°13'9 9.4
2015-Mar-26 06:33N 36°01' E 120°25'1717.1
2015-Mar-26 05:33N 35°57' E 120°45'1615.8
2015-Mar-26 04:33N 35°56' E 121°05'1919.5
2015-Mar-26 03:33N 35°49' E 121°27'2121.4
2015-Mar-26 02:33N 35°40' E 121°51'2421.6
2015-Mar-26 01:26N 35°30' E 122°17'2221.9
2015-Mar-26 00:27N 35°19' E 122°40'2121.7
2015-Mar-25 23:29N 35°10' E 123°03'2122.1
2015-Mar-25 22:32N 34°60' E 123°26'  
2015-Mar-22 21:32N 37°24' E 123°28'1716.3
2015-Mar-22 20:30N 37°40' E 123°22'1617.4
2015-Mar-22 19:33N 37°52' E 123°07'2017.9
2015-Mar-22 18:26N 38°06' E 122°48'3817.2
2015-Mar-22 16:15N 38°32' E 122°14'1816.4
2015-Mar-22 15:10N 38°46' E 122°01'7 0.2
2015-Mar-20 22:32N 38°51' E 121°55'9 9.6
2015-Mar-20 21:33N 38°43' E 121°50'10 9.9
2015-Mar-20 20:33N 38°34' E 121°44'10 9.5
2015-Mar-20 19:32N 38°30' E 121°33'1410.6
2015-Mar-20 18:14N 38°28' E 121°15'1110.3
2015-Mar-20 17:12N 38°30' E 121°02'7 9.7
2015-Mar-20 16:30N 38°33' E 120°54'8 8.4
2015-Mar-20 15:33N 38°35' E 120°44'4911.0
2015-Mar-20 11:04N 38°42' E 119°42'812.9
2015-Mar-20 10:27N 38°44' E 119°32'6115.5
2015-Mar-20 06:32N 38°50' E 118°14'1313.4
2015-Mar-20 05:33N 38°56' E 117°59'10 9.8
2015-Mar-20 04:33N 38°59' E 117°47'0 0.0
2015-Mar-20 03:05N 38°59' E 117°47'0 0.0
2015-Mar-20 02:28N 38°59' E 117°47'0 0.0
2015-Mar-20 01:22N 38°59' E 117°47'0 0.0
2015-Mar-20 00:27N 38°59' E 117°47'0 0.0
2015-Mar-19 23:21N 38°59' E 117°47'0 0.0
2015-Mar-19 22:21N 38°59' E 117°47'0 0.0
2015-Mar-19 21:26N 38°59' E 117°47'0 0.0
2015-Mar-19 20:32N 38°59' E 117°47'  
Track history (hours):
 
Tides and Currents Weather Stations Pressure Air Temp Water Temp Dewpoint Dewpoint Depression Visibility Wind Speed Wind Dir Waves Ship Positions

CMA CGM Thalassa

Last reported at 2015-Mar-29 20:31 UTC. Time now 2015-Mar-29 20:47 UTC.
Position N 28°54' E 122°37'.

Length 347 m; draft 13.7 m.

Type: Cargo ship. MMSI: 212151000.

Date/timePositionNaut miles runAvg speedWind from/ knotsBaromVisibWave heightAir tempDewpointWater temp
2015-Mar-29 20:31N 28°54' E 122°37'1919.6
2015-Mar-29 19:32N 29°13' E 122°44'2020.9
2015-Mar-29 18:33N 29°33' E 122°50'2620.8
2015-Mar-29 17:18N 29°57' E 123°00'1720.0
2015-Mar-29 16:27N 30°14' E 122°59'1921.5
2015-Mar-29 15:33N 30°28' E 122°44'2020.1
2015-Mar-29 14:33N 30°32' E 122°21'1111.1
2015-Mar-29 13:33N 30°35' E 122°08'4 1.8
2015-Mar-29 11:22N 30°37' E 122°04'0 0.0
2015-Mar-29 10:04N 30°37' E 122°04'0 0.0
2015-Mar-29 08:30N 30°37' E 122°04'0 0.0
2015-Mar-29 07:21N 30°37' E 122°04'0 0.0
2015-Mar-29 04:32N 30°37' E 122°04'0 0.0
2015-Mar-29 03:31N 30°37' E 122°04'0 0.0
2015-Mar-29 02:28N 30°37' E 122°04'0 0.0
2015-Mar-29 01:33N 30°37' E 122°04'0 0.0
2015-Mar-29 00:28N 30°37' E 122°04'0 0.0
2015-Mar-28 22:09N 30°37' E 122°04'0 0.0
2015-Mar-28 21:15N 30°37' E 122°04'0 0.0
2015-Mar-28 20:32N 30°37' E 122°04'0 0.0
2015-Mar-28 19:29N 30°37' E 122°04'0 0.0
2015-Mar-28 18:28N 30°37' E 122°04'0 0.0
2015-Mar-28 17:31N 30°37' E 122°04'0 0.0
2015-Mar-28 16:33N 30°37' E 122°04'0 0.0
2015-Mar-28 15:15N 30°37' E 122°04'0 0.0
2015-Mar-28 14:27N 30°37' E 122°04'2 1.8
2015-Mar-28 13:33N 30°36' E 122°06'1110.8
2015-Mar-28 12:33N 30°33' E 122°18'8 8.3
2015-Mar-28 11:33N 30°34' E 122°28'1211.0
2015-Mar-28 10:26N 30°33' E 122°42'1314.3
2015-Mar-28 09:33N 30°36' E 122°56'18914.2
2015-Mar-27 20:13N 33°44' E 123°16'1015.8
2015-Mar-27 19:33N 33°54' E 123°16'1616.0
2015-Mar-27 18:33N 34°10' E 123°16'2215.0
2015-Mar-27 17:05N 34°32' E 123°08'1216.2
2015-Mar-27 16:21N 34°38' E 122°56'1316.3
2015-Mar-27 15:33N 34°47' E 122°44'1616.3
2015-Mar-27 14:32N 34°58' E 122°29'1816.0
2015-Mar-27 13:25N 35°10' E 122°12'1415.9
2015-Mar-27 12:31N 35°19' E 121°59'3315.5
2015-Mar-27 10:22N 35°40' E 121°27'1315.2
2015-Mar-27 09:33N 35°49' E 121°16'1915.0
2015-Mar-27 08:16N 35°56' E 120°55'1217.2
2015-Mar-27 07:33N 35°57' E 120°40'1716.8
2015-Mar-27 06:33N 36°01' E 120°20'6 5.4
2015-Mar-27 05:28N 36°01' E 120°12'0 0.0
2015-Mar-27 04:31N 36°01' E 120°12'0 0.0
2015-Mar-27 03:33N 36°01' E 120°12'0 0.0
2015-Mar-27 02:33N 36°01' E 120°12'0 0.0
2015-Mar-27 01:14N 36°01' E 120°12'0 0.0
2015-Mar-27 00:32N 36°01' E 120°12'0 0.0
2015-Mar-26 23:31N 36°01' E 120°12'0 0.0
2015-Mar-26 22:31N 36°01' E 120°12'0 0.0
2015-Mar-26 21:22N 36°01' E 120°12'0 0.0
2015-Mar-26 20:27N 36°01' E 120°12'0 0.0
2015-Mar-26 19:27N 36°01' E 120°12'0 0.0
2015-Mar-26 17:26N 36°01' E 120°12'0 0.0
2015-Mar-26 16:19N 36°01' E 120°12'0 0.0
2015-Mar-26 14:25N 36°01' E 120°12'0 0.0
2015-Mar-26 13:33N 36°01' E 120°12'0 0.0
2015-Mar-26 12:33N 36°01' E 120°12'0 0.0
2015-Mar-26 11:29N 36°01' E 120°12'0 0.0
2015-Mar-26 09:25N 36°01' E 120°12'0 0.0
2015-Mar-26 08:32N 36°01' E 120°12'0 0.5
2015-Mar-26 07:34N 36°01' E 120°13'9 9.4
2015-Mar-26 06:33N 36°01' E 120°25'1717.1
2015-Mar-26 05:33N 35°57' E 120°45'1615.8
2015-Mar-26 04:33N 35°56' E 121°05'1919.5
2015-Mar-26 03:33N 35°49' E 121°27'2121.4
2015-Mar-26 02:33N 35°40' E 121°51'2421.6
2015-Mar-26 01:26N 35°30' E 122°17'2221.9
2015-Mar-26 00:27N 35°19' E 122°40'2121.7
2015-Mar-25 23:29N 35°10' E 123°03'2122.1
2015-Mar-25 22:32N 34°60' E 123°26'  
2015-Mar-22 21:32N 37°24' E 123°28'1716.3
2015-Mar-22 20:30N 37°40' E 123°22'1617.4
2015-Mar-22 19:33N 37°52' E 123°07'2017.9
2015-Mar-22 18:26N 38°06' E 122°48'3817.2
2015-Mar-22 16:15N 38°32' E 122°14'1816.4
2015-Mar-22 15:10N 38°46' E 122°01'7 0.2
2015-Mar-20 22:32N 38°51' E 121°55'9 9.6
2015-Mar-20 21:33N 38°43' E 121°50'10 9.9
2015-Mar-20 20:33N 38°34' E 121°44'10 9.5
2015-Mar-20 19:32N 38°30' E 121°33'1410.6
2015-Mar-20 18:14N 38°28' E 121°15'1110.3
2015-Mar-20 17:12N 38°30' E 121°02'7 9.7
2015-Mar-20 16:30N 38°33' E 120°54'8 8.4
2015-Mar-20 15:33N 38°35' E 120°44'4911.0
2015-Mar-20 11:04N 38°42' E 119°42'812.9
2015-Mar-20 10:27N 38°44' E 119°32'6115.5
2015-Mar-20 06:32N 38°50' E 118°14'1313.4
2015-Mar-20 05:33N 38°56' E 117°59'10 9.8
2015-Mar-20 04:33N 38°59' E 117°47'0 0.0
2015-Mar-20 03:05N 38°59' E 117°47'0 0.0
2015-Mar-20 02:28N 38°59' E 117°47'0 0.0
2015-Mar-20 01:22N 38°59' E 117°47'0 0.0
2015-Mar-20 00:27N 38°59' E 117°47'0 0.0
2015-Mar-19 23:21N 38°59' E 117°47'0 0.0
2015-Mar-19 22:21N 38°59' E 117°47'0 0.0
2015-Mar-19 21:26N 38°59' E 117°47'0 0.0
2015-Mar-19 20:32N 38°59' E 117°47'  

Dump ship's entire track history